sensor_id;sensor_type;location;lat;lon;timestamp;pressure;altitude;pressure_sealevel;temperature;humidity
14269;BME280;7218;51.480;7.006;2023-02-04T00:01:07;102153.00;;;10.25;84.38
14269;BME280;7218;51.480;7.006;2023-02-04T00:03:34;102152.09;;;10.23;84.28
14269;BME280;7218;51.480;7.006;2023-02-04T00:06:01;102158.00;;;10.12;84.19
14269;BME280;7218;51.480;7.006;2023-02-04T00:08:27;102173.72;;;10.16;84.09
14269;BME280;7218;51.480;7.006;2023-02-04T00:10:54;102172.72;;;10.05;85.01
14269;BME280;7218;51.480;7.006;2023-02-04T00:13:21;102183.22;;;10.13;84.83
14269;BME280;7218;51.480;7.006;2023-02-04T00:15:48;102174.53;;;10.12;84.78
14269;BME280;7218;51.480;7.006;2023-02-04T00:18:15;102169.06;;;9.92;85.72
14269;BME280;7218;51.480;7.006;2023-02-04T00:20:41;102174.56;;;10.14;84.47
14269;BME280;7218;51.480;7.006;2023-02-04T00:23:08;102170.28;;;10.17;84.53
14269;BME280;7218;51.480;7.006;2023-02-04T00:25:35;102171.91;;;10.12;84.51
14269;BME280;7218;51.480;7.006;2023-02-04T00:28:01;102188.53;;;10.17;84.40
14269;BME280;7218;51.480;7.006;2023-02-04T00:30:31;102189.31;;;10.13;84.52
14269;BME280;7218;51.480;7.006;2023-02-04T00:32:58;102194.22;;;9.92;85.52
14269;BME280;7218;51.480;7.006;2023-02-04T00:35:24;102190.00;;;10.02;84.71
14269;BME280;7218;51.480;7.006;2023-02-04T00:37:51;102189.22;;;10.07;84.85
14269;BME280;7218;51.480;7.006;2023-02-04T00:40:18;102199.00;;;10.22;84.21
14269;BME280;7218;51.480;7.006;2023-02-04T00:42:45;102191.00;;;10.10;84.93
14269;BME280;7218;51.480;7.006;2023-02-04T00:45:12;102192.03;;;10.19;84.85
14269;BME280;7218;51.480;7.006;2023-02-04T00:47:40;102184.25;;;10.22;85.10
14269;BME280;7218;51.480;7.006;2023-02-04T00:50:07;102191.13;;;10.17;85.42
14269;BME280;7218;51.480;7.006;2023-02-04T00:52:33;102188.53;;;10.16;85.56
14269;BME280;7218;51.480;7.006;2023-02-04T00:55:00;102185.84;;;10.14;85.48
14269;BME280;7218;51.480;7.006;2023-02-04T00:57:26;102191.88;;;10.09;86.19
14269;BME280;7218;51.480;7.006;2023-02-04T00:59:52;102196.34;;;10.17;85.71
14269;BME280;7218;51.480;7.006;2023-02-04T01:02:19;102201.44;;;10.11;85.91
14269;BME280;7218;51.480;7.006;2023-02-04T01:04:46;102194.66;;;10.19;85.18
14269;BME280;7218;51.480;7.006;2023-02-04T01:07:13;102205.94;;;10.20;85.45
14269;BME280;7218;51.480;7.006;2023-02-04T01:09:39;102208.53;;;10.18;85.90
14269;BME280;7218;51.480;7.006;2023-02-04T01:12:06;102212.06;;;10.20;86.58
14269;BME280;7218;51.480;7.006;2023-02-04T01:14:32;102215.44;;;10.16;86.39
14269;BME280;7218;51.480;7.006;2023-02-04T01:16:59;102219.94;;;10.25;85.90
14269;BME280;7218;51.480;7.006;2023-02-04T01:19:25;102221.47;;;10.14;86.15
14269;BME280;7218;51.480;7.006;2023-02-04T01:21:53;102225.09;;;10.23;85.92
14269;BME280;7218;51.480;7.006;2023-02-04T01:24:19;102226.88;;;10.24;85.88
14269;BME280;7218;51.480;7.006;2023-02-04T01:26:46;102223.28;;;10.18;86.13
14269;BME280;7218;51.480;7.006;2023-02-04T01:29:12;102232.13;;;10.26;85.75
14269;BME280;7218;51.480;7.006;2023-02-04T01:31:39;102242.44;;;10.20;85.93
14269;BME280;7218;51.480;7.006;2023-02-04T01:34:05;102228.56;;;10.22;85.83
14269;BME280;7218;51.480;7.006;2023-02-04T01:36:32;102246.81;;;10.22;85.82
14269;BME280;7218;51.480;7.006;2023-02-04T01:39:00;102241.66;;;10.27;86.03
14269;BME280;7218;51.480;7.006;2023-02-04T01:41:27;102246.84;;;10.24;86.00
14269;BME280;7218;51.480;7.006;2023-02-04T01:43:54;102247.81;;;10.32;85.92
14269;BME280;7218;51.480;7.006;2023-02-04T01:46:20;102242.59;;;10.32;84.96
14269;BME280;7218;51.480;7.006;2023-02-04T01:48:47;102249.63;;;10.38;85.05
14269;BME280;7218;51.480;7.006;2023-02-04T01:51:16;102254.88;;;10.39;84.79
14269;BME280;7218;51.480;7.006;2023-02-04T01:53:48;102253.97;;;10.37;85.42
14269;BME280;7218;51.480;7.006;2023-02-04T01:56:18;102255.69;;;10.36;85.29
14269;BME280;7218;51.480;7.006;2023-02-04T01:58:46;102253.00;;;10.29;85.58
14269;BME280;7218;51.480;7.006;2023-02-04T02:01:15;102247.75;;;10.27;85.36
14269;BME280;7218;51.480;7.006;2023-02-04T02:03:58;102251.28;;;10.29;85.52
14269;BME280;7218;51.480;7.006;2023-02-04T02:06:25;102253.97;;;10.37;85.29
14269;BME280;7218;51.480;7.006;2023-02-04T02:08:52;102250.97;;;10.10;85.83
14269;BME280;7218;51.480;7.006;2023-02-04T02:11:19;102261.75;;;10.34;85.20
14269;BME280;7218;51.480;7.006;2023-02-04T02:13:46;102256.38;;;10.20;85.57
14269;BME280;7218;51.480;7.006;2023-02-04T02:16:13;102260.69;;;10.21;85.82
14269;BME280;7218;51.480;7.006;2023-02-04T02:18:39;102247.56;;;10.15;84.54
14269;BME280;7218;51.480;7.006;2023-02-04T02:21:08;102262.56;;;10.28;85.04
14269;BME280;7218;51.480;7.006;2023-02-04T02:23:46;102259.94;;;10.28;84.93
14269;BME280;7218;51.480;7.006;2023-02-04T02:26:15;102264.31;;;10.29;85.50
14269;BME280;7218;51.480;7.006;2023-02-04T02:28:43;102270.31;;;10.24;85.46
14269;BME280;7218;51.480;7.006;2023-02-04T02:31:12;102271.94;;;10.16;85.95
14269;BME280;7218;51.480;7.006;2023-02-04T02:33:38;102272.63;;;10.06;86.61
14269;BME280;7218;51.480;7.006;2023-02-04T02:36:05;102280.69;;;10.19;86.33
14269;BME280;7218;51.480;7.006;2023-02-04T02:38:32;102280.41;;;10.04;86.64
14269;BME280;7218;51.480;7.006;2023-02-04T02:41:00;102284.81;;;10.08;86.52
14269;BME280;7218;51.480;7.006;2023-02-04T02:43:27;102278.81;;;10.14;86.67
14269;BME280;7218;51.480;7.006;2023-02-04T02:45:55;102290.19;;;10.16;86.71
14269;BME280;7218;51.480;7.006;2023-02-04T02:48:24;102281.47;;;10.15;85.74
14269;BME280;7218;51.480;7.006;2023-02-04T02:50:50;102290.09;;;10.13;86.20
14269;BME280;7218;51.480;7.006;2023-02-04T02:53:18;102286.59;;;10.09;86.60
14269;BME280;7218;51.480;7.006;2023-02-04T02:55:46;102276.19;;;10.12;86.39
14269;BME280;7218;51.480;7.006;2023-02-04T02:58:17;102292.81;;;10.17;86.33
14269;BME280;7218;51.480;7.006;2023-02-04T03:00:45;102288.31;;;10.09;86.88
14269;BME280;7218;51.480;7.006;2023-02-04T03:03:16;102290.06;;;10.11;86.83
14269;BME280;7218;51.480;7.006;2023-02-04T03:05:48;102287.47;;;10.10;86.12
14269;BME280;7218;51.480;7.006;2023-02-04T03:08:17;102290.06;;;10.11;86.04
14269;BME280;7218;51.480;7.006;2023-02-04T03:10:45;102291.97;;;10.18;86.20
14269;BME280;7218;51.480;7.006;2023-02-04T03:13:13;102290.13;;;10.14;86.76
14269;BME280;7218;51.480;7.006;2023-02-04T03:15:44;102297.13;;;10.17;86.98
14269;BME280;7218;51.480;7.006;2023-02-04T03:18:12;102294.41;;;10.09;86.82
14269;BME280;7218;51.480;7.006;2023-02-04T03:20:40;102300.53;;;10.13;86.40
14269;BME280;7218;51.480;7.006;2023-02-04T03:23:06;102303.88;;;10.04;86.35
14269;BME280;7218;51.480;7.006;2023-02-04T03:25:33;102304.72;;;10.03;86.74
14269;BME280;7218;51.480;7.006;2023-02-04T03:28:00;102298.78;;;10.10;86.40
14269;BME280;7218;51.480;7.006;2023-02-04T03:30:26;102300.66;;;10.19;85.96
14269;BME280;7218;51.480;7.006;2023-02-04T03:32:54;102309.25;;;10.15;86.42
14269;BME280;7218;51.480;7.006;2023-02-04T03:35:21;102307.38;;;10.06;86.31
14269;BME280;7218;51.480;7.006;2023-02-04T03:37:47;102315.16;;;10.03;86.95
14269;BME280;7218;51.480;7.006;2023-02-04T03:40:14;102312.41;;;9.94;87.43
14269;BME280;7218;51.480;7.006;2023-02-04T03:42:41;102314.88;;;9.86;87.62
14269;BME280;7218;51.480;7.006;2023-02-04T03:45:08;102316.00;;;10.02;86.98
14269;BME280;7218;51.480;7.006;2023-02-04T03:47:34;102320.91;;;9.81;87.49
14269;BME280;7218;51.480;7.006;2023-02-04T03:50:03;102320.19;;;9.92;87.93
14269;BME280;7218;51.480;7.006;2023-02-04T03:52:30;102331.41;;;9.85;87.59
14269;BME280;7218;51.480;7.006;2023-02-04T03:54:56;102334.91;;;9.89;87.74
14269;BME280;7218;51.480;7.006;2023-02-04T03:57:23;102333.09;;;9.83;87.68
14269;BME280;7218;51.480;7.006;2023-02-04T03:59:49;102324.53;;;9.92;87.01
14269;BME280;7218;51.480;7.006;2023-02-04T04:02:16;102320.56;;;9.61;88.48
14269;BME280;7218;51.480;7.006;2023-02-04T04:04:42;102315.63;;;9.78;87.72
14269;BME280;7218;51.480;7.006;2023-02-04T04:07:10;102320.81;;;9.78;87.75
14269;BME280;7218;51.480;7.006;2023-02-04T04:09:36;102319.00;;;9.72;87.91
14269;BME280;7218;51.480;7.006;2023-02-04T04:12:03;102325.38;;;9.89;87.15
14269;BME280;7218;51.480;7.006;2023-02-04T04:14:30;102320.75;;;9.73;87.73
14269;BME280;7218;51.480;7.006;2023-02-04T04:16:56;102330.44;;;9.82;88.02
14269;BME280;7218;51.480;7.006;2023-02-04T04:19:22;102338.00;;;9.67;88.41
14269;BME280;7218;51.480;7.006;2023-02-04T04:21:49;102351.91;;;9.67;88.77
14269;BME280;7218;51.480;7.006;2023-02-04T04:24:17;102339.03;;;9.76;88.42
14269;BME280;7218;51.480;7.006;2023-02-04T04:26:43;102350.84;;;9.56;88.89
14269;BME280;7218;51.480;7.006;2023-02-04T04:29:10;102354.53;;;9.69;88.56
14269;BME280;7218;51.480;7.006;2023-02-04T04:31:36;102354.84;;;9.85;88.45
14269;BME280;7218;51.480;7.006;2023-02-04T04:34:03;102363.47;;;9.83;88.48
14269;BME280;7218;51.480;7.006;2023-02-04T04:36:29;102365.22;;;9.84;88.01
14269;BME280;7218;51.480;7.006;2023-02-04T04:38:55;102363.63;;;9.92;87.77
14269;BME280;7218;51.480;7.006;2023-02-04T04:41:23;102357.59;;;9.94;88.45
14269;BME280;7218;51.480;7.006;2023-02-04T04:43:50;102357.41;;;9.84;88.13
14269;BME280;7218;51.480;7.006;2023-02-04T04:46:16;102367.72;;;9.78;88.47
14269;BME280;7218;51.480;7.006;2023-02-04T04:48:43;102372.25;;;9.88;87.70
14269;BME280;7218;51.480;7.006;2023-02-04T04:51:09;102363.69;;;9.97;87.85
14269;BME280;7218;51.480;7.006;2023-02-04T04:53:36;102362.81;;;9.94;87.69
14269;BME280;7218;51.480;7.006;2023-02-04T04:56:02;102367.94;;;9.91;87.86
14269;BME280;7218;51.480;7.006;2023-02-04T04:58:30;102362.78;;;9.93;87.48
14269;BME280;7218;51.480;7.006;2023-02-04T05:00:56;102366.19;;;9.89;87.29
14269;BME280;7218;51.480;7.006;2023-02-04T05:03:23;102376.47;;;9.80;87.86
14269;BME280;7218;51.480;7.006;2023-02-04T05:05:49;102381.78;;;9.86;87.96
14269;BME280;7218;51.480;7.006;2023-02-04T05:08:16;102385.06;;;9.76;88.20
14269;BME280;7218;51.480;7.006;2023-02-04T05:10:44;102381.81;;;9.89;88.32
14269;BME280;7218;51.480;7.006;2023-02-04T05:13:11;102386.13;;;9.87;87.70
14269;BME280;7218;51.480;7.006;2023-02-04T05:15:39;102389.41;;;9.75;88.18
14269;BME280;7218;51.480;7.006;2023-02-04T05:18:06;102392.97;;;9.82;88.31
14269;BME280;7218;51.480;7.006;2023-02-04T05:20:33;102392.00;;;9.77;88.48
14269;BME280;7218;51.480;7.006;2023-02-04T05:22:59;102397.22;;;9.75;88.72
14269;BME280;7218;51.480;7.006;2023-02-04T05:25:26;102399.16;;;9.87;88.09
14269;BME280;7218;51.480;7.006;2023-02-04T05:27:53;102399.16;;;9.87;87.60
14269;BME280;7218;51.480;7.006;2023-02-04T05:30:20;102401.03;;;9.94;87.92
14269;BME280;7218;51.480;7.006;2023-02-04T05:32:48;102395.00;;;9.98;88.11
14269;BME280;7218;51.480;7.006;2023-02-04T05:35:15;102394.03;;;9.93;87.29
14269;BME280;7218;51.480;7.006;2023-02-04T05:37:41;102403.66;;;9.97;87.41
14269;BME280;7218;51.480;7.006;2023-02-04T05:40:09;102407.88;;;9.89;87.41
14269;BME280;7218;51.480;7.006;2023-02-04T05:42:35;102407.13;;;9.94;87.82
14269;BME280;7218;51.480;7.006;2023-02-04T05:45:02;102419.25;;;9.94;87.57
14269;BME280;7218;51.480;7.006;2023-02-04T05:47:28;102414.69;;;9.81;88.30
14269;BME280;7218;51.480;7.006;2023-02-04T05:49:56;102405.28;;;9.89;88.73
14269;BME280;7218;51.480;7.006;2023-02-04T05:52:23;102410.50;;;9.89;88.47
14269;BME280;7218;51.480;7.006;2023-02-04T05:54:49;102418.25;;;9.86;87.52
14269;BME280;7218;51.480;7.006;2023-02-04T05:57:16;102426.25;;;9.95;88.12
14269;BME280;7218;51.480;7.006;2023-02-04T05:59:42;102432.28;;;9.94;87.61
14269;BME280;7218;51.480;7.006;2023-02-04T06:02:08;102437.34;;;9.85;88.66
14269;BME280;7218;51.480;7.006;2023-02-04T06:04:35;102442.56;;;9.86;88.21
14269;BME280;7218;51.480;7.006;2023-02-04T06:07:03;102438.38;;;9.94;87.44
14269;BME280;7218;51.480;7.006;2023-02-04T06:09:29;102445.97;;;9.82;87.88
14269;BME280;7218;51.480;7.006;2023-02-04T06:11:55;102438.22;;;9.85;88.61
14269;BME280;7218;51.480;7.006;2023-02-04T06:14:22;102442.69;;;9.92;88.47
14269;BME280;7218;51.480;7.006;2023-02-04T06:16:49;102442.69;;;9.91;89.04
14269;BME280;7218;51.480;7.006;2023-02-04T06:19:15;102461.63;;;9.84;88.51
14269;BME280;7218;51.480;7.006;2023-02-04T06:21:42;102454.50;;;9.74;88.83
14269;BME280;7218;51.480;7.006;2023-02-04T06:24:09;102455.66;;;9.89;89.74
14269;BME280;7218;51.480;7.006;2023-02-04T06:26:36;102460.03;;;9.92;88.75
14269;BME280;7218;51.480;7.006;2023-02-04T06:29:02;102459.19;;;9.93;88.95
14269;BME280;7218;51.480;7.006;2023-02-04T06:31:29;102462.59;;;9.89;89.00
14269;BME280;7218;51.480;7.006;2023-02-04T06:33:55;102461.75;;;9.91;89.26
14269;BME280;7218;51.480;7.006;2023-02-04T06:36:22;102459.19;;;9.93;88.64
14269;BME280;7218;51.480;7.006;2023-02-04T06:38:48;102458.31;;;9.92;89.05
14269;BME280;7218;51.480;7.006;2023-02-04T06:41:16;102461.16;;;10.05;89.58
14269;BME280;7218;51.480;7.006;2023-02-04T06:43:42;102463.56;;;9.94;89.37
14269;BME280;7218;51.480;7.006;2023-02-04T06:46:09;102452.38;;;10.00;88.64
14269;BME280;7218;51.480;7.006;2023-02-04T06:48:35;102458.31;;;9.92;88.61
14269;BME280;7218;51.480;7.006;2023-02-04T06:51:02;102458.31;;;9.91;88.99
14269;BME280;7218;51.480;7.006;2023-02-04T06:53:28;102473.09;;;9.93;89.21
14269;BME280;7218;51.480;7.006;2023-02-04T06:55:55;102466.16;;;9.94;88.52
14269;BME280;7218;51.480;7.006;2023-02-04T06:58:22;102472.22;;;9.93;89.24
14269;BME280;7218;51.480;7.006;2023-02-04T07:00:49;102480.84;;;9.89;88.65
14269;BME280;7218;51.480;7.006;2023-02-04T07:03:15;102479.25;;;9.96;89.38
14269;BME280;7218;51.480;7.006;2023-02-04T07:05:42;102480.00;;;9.91;89.34
14269;BME280;7218;51.480;7.006;2023-02-04T07:08:08;102475.75;;;9.95;89.56
14269;BME280;7218;51.480;7.006;2023-02-04T07:10:34;102480.13;;;9.98;89.07
14269;BME280;7218;51.480;7.006;2023-02-04T07:13:01;102477.53;;;9.96;88.97
14269;BME280;7218;51.480;7.006;2023-02-04T07:15:29;102485.06;;;9.82;90.59
14269;BME280;7218;51.480;7.006;2023-02-04T07:17:55;102485.81;;;9.75;91.12
14269;BME280;7218;51.480;7.006;2023-02-04T07:20:22;102486.69;;;9.77;91.25
14269;BME280;7218;51.480;7.006;2023-02-04T07:22:48;102497.97;;;9.76;90.86
14269;BME280;7218;51.480;7.006;2023-02-04T07:25:15;102496.31;;;9.80;91.24
14269;BME280;7218;51.480;7.006;2023-02-04T07:27:42;102501.53;;;9.81;91.00
14269;BME280;7218;51.480;7.006;2023-02-04T07:30:09;102510.31;;;9.85;90.90
14269;BME280;7218;51.480;7.006;2023-02-04T07:32:37;102505.00;;;9.82;90.60
14269;BME280;7218;51.480;7.006;2023-02-04T07:35:04;102511.13;;;9.82;90.77
14269;BME280;7218;51.480;7.006;2023-02-04T07:37:31;102506.88;;;9.86;91.04
14269;BME280;7218;51.480;7.006;2023-02-04T07:39:57;102513.78;;;9.85;90.40
14269;BME280;7218;51.480;7.006;2023-02-04T07:42:24;102518.97;;;9.84;90.75
14269;BME280;7218;51.480;7.006;2023-02-04T07:44:50;102515.59;;;9.89;90.87
14269;BME280;7218;51.480;7.006;2023-02-04T07:47:17;102517.38;;;9.92;90.60
14269;BME280;7218;51.480;7.006;2023-02-04T07:49:45;102505.44;;;10.03;90.37
14269;BME280;7218;51.480;7.006;2023-02-04T07:52:11;102517.66;;;10.07;90.30
14269;BME280;7218;51.480;7.006;2023-02-04T07:54:38;102519.44;;;10.08;90.01
14269;BME280;7218;51.480;7.006;2023-02-04T07:57:04;102522.06;;;10.10;90.21
14269;BME280;7218;51.480;7.006;2023-02-04T07:59:30;102526.44;;;10.12;90.33
14269;BME280;7218;51.480;7.006;2023-02-04T08:01:57;102529.09;;;10.14;90.16
14269;BME280;7218;51.480;7.006;2023-02-04T08:04:26;102529.97;;;10.14;90.31
14269;BME280;7218;51.480;7.006;2023-02-04T08:06:53;102534.41;;;10.18;90.62
14269;BME280;7218;51.480;7.006;2023-02-04T08:09:20;102536.00;;;10.10;89.22
14269;BME280;7218;51.480;7.006;2023-02-04T08:11:46;102534.38;;;10.17;90.26
14269;BME280;7218;51.480;7.006;2023-02-04T08:14:13;102541.44;;;10.22;89.92
14269;BME280;7218;51.480;7.006;2023-02-04T08:16:39;102544.22;;;10.31;89.83
14269;BME280;7218;51.480;7.006;2023-02-04T08:19:06;102540.31;;;10.56;88.36
14269;BME280;7218;51.480;7.006;2023-02-04T08:21:32;102546.63;;;10.69;86.81
14269;BME280;7218;51.480;7.006;2023-02-04T08:24:00;102551.94;;;10.76;86.38
14269;BME280;7218;51.480;7.006;2023-02-04T08:26:26;102552.91;;;10.80;86.70
14269;BME280;7218;51.480;7.006;2023-02-04T08:28:53;102564.28;;;10.87;85.70
14269;BME280;7218;51.480;7.006;2023-02-04T08:31:20;102556.28;;;10.74;85.78
14269;BME280;7218;51.480;7.006;2023-02-04T08:33:47;102557.44;;;10.93;85.51
14269;BME280;7218;51.480;7.006;2023-02-04T08:36:13;102565.47;;;11.05;84.39
14269;BME280;7218;51.480;7.006;2023-02-04T08:38:39;102568.22;;;11.14;84.69
14269;BME280;7218;51.480;7.006;2023-02-04T08:41:07;102568.38;;;11.27;84.21
14269;BME280;7218;51.480;7.006;2023-02-04T08:43:34;102575.44;;;11.31;84.41
14269;BME280;7218;51.480;7.006;2023-02-04T08:46:01;102574.59;;;11.33;82.00
14269;BME280;7218;51.480;7.006;2023-02-04T08:48:27;102583.19;;;11.28;83.61
14269;BME280;7218;51.480;7.006;2023-02-04T08:50:54;102579.06;;;11.42;83.42
14269;BME280;7218;51.480;7.006;2023-02-04T08:53:20;102584.19;;;11.36;83.93
14269;BME280;7218;51.480;7.006;2023-02-04T08:55:47;102589.28;;;11.25;82.79
14269;BME280;7218;51.480;7.006;2023-02-04T08:58:14;102595.38;;;11.26;84.23
14269;BME280;7218;51.480;7.006;2023-02-04T09:00:41;102598.59;;;11.09;83.85
14269;BME280;7218;51.480;7.006;2023-02-04T09:03:08;102597.72;;;11.09;83.57
14269;BME280;7218;51.480;7.006;2023-02-04T09:05:34;102592.47;;;11.07;85.04
14269;BME280;7218;51.480;7.006;2023-02-04T09:08:01;102586.38;;;11.07;85.03
14269;BME280;7218;51.480;7.006;2023-02-04T09:10:27;102590.88;;;11.17;83.61
14269;BME280;7218;51.480;7.006;2023-02-04T09:12:53;102595.22;;;11.15;84.18
14269;BME280;7218;51.480;7.006;2023-02-04T09:15:22;102597.13;;;11.25;84.44
14269;BME280;7218;51.480;7.006;2023-02-04T09:17:49;102601.31;;;11.17;84.83
14269;BME280;7218;51.480;7.006;2023-02-04T09:20:18;102610.09;;;11.20;84.49
14269;BME280;7218;51.480;7.006;2023-02-04T09:22:45;102605.81;;;11.27;84.54
14269;BME280;7218;51.480;7.006;2023-02-04T09:25:12;102599.94;;;11.40;83.56
14269;BME280;7218;51.480;7.006;2023-02-04T09:27:38;102606.03;;;11.41;83.53
14269;BME280;7218;51.480;7.006;2023-02-04T09:30:05;102604.31;;;11.43;83.91
14269;BME280;7218;51.480;7.006;2023-02-04T09:32:33;102610.69;;;11.61;83.68
14269;BME280;7218;51.480;7.006;2023-02-04T09:35:00;102603.78;;;11.65;82.72
14269;BME280;7218;51.480;7.006;2023-02-04T09:37:26;102608.88;;;11.57;83.26
14269;BME280;7218;51.480;7.006;2023-02-04T09:39:53;102614.22;;;11.66;83.14
14269;BME280;7218;51.480;7.006;2023-02-04T09:42:22;102613.13;;;11.49;82.87
14269;BME280;7218;51.480;7.006;2023-02-04T09:44:50;102619.19;;;11.45;82.76
14269;BME280;7218;51.480;7.006;2023-02-04T09:47:19;102615.69;;;11.45;83.18
14269;BME280;7218;51.480;7.006;2023-02-04T09:49:48;102618.59;;;11.68;82.85
14269;BME280;7218;51.480;7.006;2023-02-04T09:52:15;102627.25;;;11.60;81.94
14269;BME280;7218;51.480;7.006;2023-02-04T09:54:43;102634.25;;;11.64;83.35
14269;BME280;7218;51.480;7.006;2023-02-04T09:57:14;102634.31;;;11.71;82.72
14269;BME280;7218;51.480;7.006;2023-02-04T09:59:43;102639.41;;;11.61;82.35
14269;BME280;7218;51.480;7.006;2023-02-04T10:02:19;102631.88;;;11.80;81.84
14269;BME280;7218;51.480;7.006;2023-02-04T10:04:49;102637.16;;;11.84;81.62
14269;BME280;7218;51.480;7.006;2023-02-04T10:07:18;102639.72;;;11.80;81.13
14269;BME280;7218;51.480;7.006;2023-02-04T10:09:52;102643.38;;;11.92;81.20
14269;BME280;7218;51.480;7.006;2023-02-04T10:12:19;102645.97;;;11.89;81.48
14269;BME280;7218;51.480;7.006;2023-02-04T10:14:46;102644.41;;;12.05;81.14
14269;BME280;7218;51.480;7.006;2023-02-04T10:17:15;102646.28;;;12.17;80.01
14269;BME280;7218;51.480;7.006;2023-02-04T10:19:43;102645.63;;;12.34;79.95
14269;BME280;7218;51.480;7.006;2023-02-04T10:22:15;102652.69;;;12.43;79.80
14269;BME280;7218;51.480;7.006;2023-02-04T10:24:42;102646.50;;;12.35;78.48
14269;BME280;7218;51.480;7.006;2023-02-04T10:27:11;102646.59;;;12.44;77.98
14269;BME280;7218;51.480;7.006;2023-02-04T10:29:41;102652.66;;;12.38;78.99
14269;BME280;7218;51.480;7.006;2023-02-04T10:32:26;102645.66;;;12.37;79.31
14269;BME280;7218;51.480;7.006;2023-02-04T10:35:03;102646.47;;;12.32;78.22
14269;BME280;7218;51.480;7.006;2023-02-04T10:37:41;102652.69;;;12.40;79.87
14269;BME280;7218;51.480;7.006;2023-02-04T10:40:27;102651.25;;;12.72;77.28
14269;BME280;7218;51.480;7.006;2023-02-04T10:42:54;102650.50;;;12.85;77.14
14269;BME280;7218;51.480;7.006;2023-02-04T10:45:22;102655.94;;;13.07;76.53
14269;BME280;7218;51.480;7.006;2023-02-04T10:47:50;102650.06;;;13.32;75.77
14269;BME280;7218;51.480;7.006;2023-02-04T10:50:17;102639.56;;;13.35;75.81
14269;BME280;7218;51.480;7.006;2023-02-04T10:52:52;102647.53;;;13.50;75.32
14269;BME280;7218;51.480;7.006;2023-02-04T10:55:21;102641.34;;;13.34;74.42
14269;BME280;7218;51.480;7.006;2023-02-04T10:57:50;102648.31;;;13.32;74.23
14269;BME280;7218;51.480;7.006;2023-02-04T11:00:18;102650.78;;;13.16;73.01
14269;BME280;7218;51.480;7.006;2023-02-04T11:02:48;102648.97;;;13.10;73.79
14269;BME280;7218;51.480;7.006;2023-02-04T11:05:20;102647.75;;;12.72;73.44
14269;BME280;7218;51.480;7.006;2023-02-04T11:07:49;102652.94;;;12.66;76.81
14269;BME280;7218;51.480;7.006;2023-02-04T11:10:18;102641.47;;;12.53;75.69
14269;BME280;7218;51.480;7.006;2023-02-04T11:12:58;102646.97;;;12.79;76.84
14269;BME280;7218;51.480;7.006;2023-02-04T11:15:40;102654.78;;;12.76;74.89
14269;BME280;7218;51.480;7.006;2023-02-04T11:18:10;102650.63;;;12.98;76.33
14269;BME280;7218;51.480;7.006;2023-02-04T11:20:38;102652.44;;;13.05;74.91
14269;BME280;7218;51.480;7.006;2023-02-04T11:23:29;102645.50;;;13.10;74.70
14269;BME280;7218;51.480;7.006;2023-02-04T11:26:08;102653.44;;;13.17;75.53
14269;BME280;7218;51.480;7.006;2023-02-04T11:29:07;102649.06;;;13.18;74.34
14269;BME280;7218;51.480;7.006;2023-02-04T11:31:43;102651.78;;;13.31;74.96
14269;BME280;7218;51.480;7.006;2023-02-04T11:34:30;102658.81;;;13.35;72.06
14269;BME280;7218;51.480;7.006;2023-02-04T11:37:05;102655.41;;;12.52;75.03
14269;BME280;7218;51.480;7.006;2023-02-04T11:39:38;102649.72;;;12.94;74.24
14269;BME280;7218;51.480;7.006;2023-02-04T11:42:16;102657.66;;;13.03;74.29
14269;BME280;7218;51.480;7.006;2023-02-04T11:44:47;102653.44;;;13.14;71.91
14269;BME280;7218;51.480;7.006;2023-02-04T11:47:14;102663.13;;;13.30;72.40
14269;BME280;7218;51.480;7.006;2023-02-04T11:49:41;102660.50;;;13.27;71.64
14269;BME280;7218;51.480;7.006;2023-02-04T11:52:13;102659.69;;;13.33;71.76
14269;BME280;7218;51.480;7.006;2023-02-04T11:54:41;102661.41;;;12.42;75.41
14269;BME280;7218;51.480;7.006;2023-02-04T11:57:10;102656.59;;;12.83;75.77
14269;BME280;7218;51.480;7.006;2023-02-04T11:59:36;102652.38;;;12.99;73.36
14269;BME280;7218;51.480;7.006;2023-02-04T12:02:04;102650.88;;;13.26;74.72
14269;BME280;7218;51.480;7.006;2023-02-04T12:04:31;102645.00;;;13.58;73.38
14269;BME280;7218;51.480;7.006;2023-02-04T12:06:58;102651.22;;;13.73;72.42
14269;BME280;7218;51.480;7.006;2023-02-04T12:09:27;102655.22;;;13.23;70.25
14269;BME280;7218;51.480;7.006;2023-02-04T12:11:57;102654.88;;;12.83;72.64
14269;BME280;7218;51.480;7.006;2023-02-04T12:14:28;102662.84;;;12.97;72.74
14269;BME280;7218;51.480;7.006;2023-02-04T12:16:55;102656.78;;;13.06;71.98
14269;BME280;7218;51.480;7.006;2023-02-04T12:19:21;102657.81;;;13.18;72.27
14269;BME280;7218;51.480;7.006;2023-02-04T12:21:48;102656.19;;;13.37;71.28
14269;BME280;7218;51.480;7.006;2023-02-04T12:24:14;102657.13;;;13.44;70.71
14269;BME280;7218;51.480;7.006;2023-02-04T12:26:41;102658.81;;;13.35;68.55
14269;BME280;7218;51.480;7.006;2023-02-04T12:29:09;102661.44;;;13.37;70.68
14269;BME280;7218;51.480;7.006;2023-02-04T12:31:35;102664.53;;;12.92;71.80
14269;BME280;7218;51.480;7.006;2023-02-04T12:34:02;102662.00;;;13.03;71.92
14269;BME280;7218;51.480;7.006;2023-02-04T12:36:28;102666.00;;;13.67;70.71
14269;BME280;7218;51.480;7.006;2023-02-04T12:38:55;102666.63;;;13.28;70.13
14269;BME280;7218;51.480;7.006;2023-02-04T12:41:23;102658.22;;;13.80;66.93
14269;BME280;7218;51.480;7.006;2023-02-04T12:43:49;102653.00;;;13.84;65.88
14269;BME280;7218;51.480;7.006;2023-02-04T12:46:17;102656.63;;;14.16;65.19
14269;BME280;7218;51.480;7.006;2023-02-04T12:48:44;102662.00;;;14.37;65.88
14269;BME280;7218;51.480;7.006;2023-02-04T12:51:10;102662.88;;;14.45;61.32
14269;BME280;7218;51.480;7.006;2023-02-04T12:53:37;102662.78;;;14.21;64.19
14269;BME280;7218;51.480;7.006;2023-02-04T12:56:04;102673.25;;;14.16;65.36
14269;BME280;7218;51.480;7.006;2023-02-04T12:58:31;102662.81;;;14.27;66.17
14269;BME280;7218;51.480;7.006;2023-02-04T13:00:57;102674.13;;;14.20;65.01
14269;BME280;7218;51.480;7.006;2023-02-04T13:03:25;102675.75;;;13.85;66.74
14269;BME280;7218;51.480;7.006;2023-02-04T13:05:52;102674.25;;;14.41;62.84